Boulder Muni, Boulder, CO, CO

10:18 AM MDT on October 23, 2019 (GMT -0600)
Boulder Muni, Boulder, CO

Weather History for KBDU - August, 2019

Change the Weather History Date:

Tuesday, August 20, 2019

  Actual Average Record
Temperature  
Mean Temperature 80 °F -  
Max Temperature 97 °F - 97 °F (2019)
Min Temperature 63 °F - 46 °F (2016)
Degree Days  
Heating Degree Days 0    
Month to date heating degree days 0  
Cooling Degree Days 15    
Month to date cooling degree days 206  
Growing Degree Days 29 (Base 50)    
Moisture  
Dew Point 42 °F    
Average Humidity 32    
Maximum Humidity 53    
Minimum Humidity 11    
Precipitation  
Precipitation 0.00 in - 0.01 in (2014)
Snow  
Snow 0.00 in - - ()
Snow Depth 0.00 in    
Sea Level Pressure  
Sea Level Pressure 30.14 in    
Wind  
Wind Speed 3 mph (South)    
Max Wind Speed 10 mph    
Max Gust Speed 25 mph    
Visibility 10 miles    
Events      
T = Trace of Precipitation, MM = Missing Value Source: NWS Daily Summary

Daily Weather History Graph

Daily Weather History Graph

Search for Another Location

Airport or City:

Astronomy

Aug. 20, 2019 Rise Set
Actual Time 6:17 AM MDT 7:50 PM MDT
Civil Twilight 5:48 AM MDT 8:19 PM MDT
Nautical Twilight 5:13 AM MDT 8:53 PM MDT
Astronomical Twilight 4:37 AM MDT 9:30 PM MDT
Moon 10:40 PM MDT (8/20) 10:57 AM MDT (8/20)
Length of Visible Light 14h 30m
Length of Day
13h 33m
Waning Gibbous, 77% of the Moon is Illuminated
Aug 20
Waning Gibbous
Aug 23
Last Quarter
Aug 30
New
Sep 5
First Quarter
Sep 13
Full

Hourly Weather History & Observations

Time (MDT) Temp. Dew Point Humidity Pressure Visibility Wind Dir Wind Speed Gust Speed Precip Events Conditions
12:13 AM 73.4 °F 41.0 °F 31% 30.11 in 10.0 mi West 3.5 mph - N/A   Clear
12:31 AM 71.6 °F 37.4 °F 29% 30.11 in 10.0 mi WSW 4.6 mph - N/A   Clear
12:50 AM 73.4 °F 33.8 °F 23% 30.10 in 10.0 mi WSW 5.8 mph - N/A   Clear
1:12 AM 73.4 °F 33.8 °F 23% 30.10 in 10.0 mi SW 3.5 mph - N/A   Clear
1:30 AM 71.6 °F 33.8 °F 25% 30.10 in 10.0 mi Calm Calm - N/A   Clear
1:48 AM 69.8 °F 37.4 °F 31% 30.10 in 10.0 mi SW 3.5 mph - N/A   Clear
2:12 AM 68.0 °F 39.2 °F 35% 30.11 in 10.0 mi South 3.5 mph - N/A   Clear
2:30 AM 71.6 °F 33.8 °F 25% 30.11 in 10.0 mi SW 3.5 mph - N/A   Clear
2:48 AM 71.6 °F 33.8 °F 25% 30.11 in 10.0 mi SW 3.5 mph - N/A   Clear
3:12 AM 62.6 °F 41.0 °F 45% 30.12 in 10.0 mi North 3.5 mph - N/A   Clear
3:30 AM 62.6 °F 41.0 °F 45% 30.13 in 10.0 mi Calm Calm - N/A   Clear
3:48 AM 64.4 °F 42.8 °F 45% 30.14 in 10.0 mi West 3.5 mph - N/A   Clear
4:12 AM 68.0 °F 42.8 °F 40% 30.14 in 10.0 mi Calm Calm - N/A   Clear
4:30 AM 68.0 °F 37.4 °F 33% 30.13 in 10.0 mi WSW 3.5 mph - N/A   Clear
4:48 AM 68.0 °F 41.0 °F 37% 30.13 in 10.0 mi Calm Calm - N/A   Clear
5:12 AM 66.2 °F 37.4 °F 35% 30.13 in 10.0 mi SSW 4.6 mph - N/A   Clear
5:30 AM 64.4 °F 37.4 °F 37% 30.13 in 10.0 mi Calm Calm - N/A   Clear
5:48 AM 64.4 °F 41.0 °F 42% 30.13 in 10.0 mi Calm Calm - N/A   Clear
6:08 AM 64.4 °F 44.6 °F 49% 30.13 in 10.0 mi Calm Calm - N/A   Clear
6:32 AM 64.4 °F 41.0 °F 42% 30.14 in 10.0 mi Calm Calm - N/A   Clear
6:50 AM 64.4 °F 41.0 °F 42% 30.14 in 10.0 mi Calm Calm - N/A   Clear
7:12 AM 64.4 °F 41.0 °F 42% 30.14 in 10.0 mi South 3.5 mph - N/A   Clear
7:30 AM 64.4 °F 44.6 °F 49% 30.15 in 10.0 mi Calm Calm - N/A   Clear
7:48 AM 68.0 °F 44.6 °F 43% 30.15 in 10.0 mi Calm Calm - N/A   Clear
8:12 AM 69.8 °F 41.0 °F 35% 30.15 in 10.0 mi Calm Calm - N/A   Clear
8:30 AM 71.6 °F 42.8 °F 35% 30.15 in 10.0 mi Calm Calm - N/A   Clear
8:48 AM 75.2 °F 41.0 °F 29% 30.15 in 10.0 mi Calm Calm - N/A   Clear
9:12 AM 77.0 °F 44.6 °F 32% 30.15 in 10.0 mi Calm Calm - N/A   Clear
9:30 AM 80.6 °F 42.8 °F 26% 30.15 in 10.0 mi Calm Calm - N/A   Clear
9:48 AM 82.4 °F 37.4 °F 20% 30.15 in 10.0 mi Calm Calm - N/A   Clear
10:12 AM 86.0 °F 41.0 °F 20% 30.16 in 10.0 mi Calm Calm - N/A   Clear
10:30 AM 86.0 °F 37.4 °F 18% 30.16 in 10.0 mi Calm Calm - N/A   Clear
10:48 AM 87.8 °F 46.4 °F 24% 30.15 in 10.0 mi East 3.5 mph - N/A   Clear
11:12 AM 89.6 °F 41.0 °F 18% 30.15 in 10.0 mi Calm Calm - N/A   Clear
11:30 AM 91.4 °F 35.6 °F 14% 30.15 in 10.0 mi SE 3.5 mph - N/A   Clear
11:48 AM 93.2 °F 37.4 °F 14% 30.15 in 10.0 mi East 3.5 mph - N/A   Clear
12:12 PM 95.0 °F 35.6 °F 12% 30.14 in 10.0 mi ESE 6.9 mph - N/A   Clear
12:30 PM 95.0 °F 35.6 °F 12% 30.14 in 10.0 mi ENE 8.1 mph - N/A   Clear
12:48 PM 95.0 °F 33.8 °F 12% 30.14 in 10.0 mi ENE 8.1 mph - N/A   Clear
1:12 PM 96.8 °F 33.8 °F 11% 30.14 in 10.0 mi East 3.5 mph - N/A   Clear
1:30 PM 96.8 °F 35.6 °F 12% 30.13 in 10.0 mi East 5.8 mph - N/A   Clear
1:48 PM 96.8 °F 33.8 °F 11% 30.13 in 10.0 mi ESE 4.6 mph - N/A   Clear
2:12 PM 96.8 °F 33.8 °F 11% 30.12 in 10.0 mi East 8.1 mph - N/A   Clear
2:30 PM 96.8 °F 33.8 °F 11% 30.11 in 10.0 mi Calm Calm - N/A   Clear
2:48 PM 96.8 °F 35.6 °F 12% 30.11 in 10.0 mi ESE 5.8 mph - N/A   Clear
3:12 PM 96.8 °F 37.4 °F 13% 30.10 in 10.0 mi ENE 6.9 mph - N/A   Clear
3:30 PM 96.8 °F 37.4 °F 13% 30.09 in 10.0 mi East 6.9 mph - N/A   Clear
3:48 PM 96.8 °F 37.4 °F 13% 30.08 in 10.0 mi SE 5.8 mph - N/A   Clear
4:12 PM 96.8 °F 35.6 °F 12% 30.07 in 10.0 mi Calm Calm - N/A   Clear
4:30 PM 96.8 °F 35.6 °F 12% 30.06 in 10.0 mi SW 6.9 mph - N/A   Clear
4:54 PM 96.8 °F 35.6 °F 12% 30.07 in 10.0 mi NE 5.8 mph - N/A   Clear
5:13 PM 96.8 °F 35.6 °F 12% 30.08 in 10.0 mi ENE 5.8 mph - N/A   Clear
5:31 PM 91.4 °F 42.8 °F 18% 30.10 in 10.0 mi NE 15.0 mph 26.5 mph N/A   Clear
5:49 PM 78.8 °F 50.0 °F 36% 30.14 in 7.0 mi North 10.4 mph 25.3 mph N/A   Clear
6:08 PM 77.0 °F 46.4 °F 34% 30.14 in 10.0 mi NNW 8.1 mph - N/A   Clear
6:32 PM 78.8 °F 46.4 °F 32% 30.14 in 10.0 mi NW 5.8 mph - N/A   Clear
6:50 PM 78.8 °F 46.4 °F 32% 30.15 in 10.0 mi NW 4.6 mph - N/A   Clear
7:12 PM 80.6 °F 46.4 °F 30% 30.16 in 10.0 mi NW 5.8 mph - N/A   Clear
7:30 PM 78.8 °F 48.2 °F 34% 30.16 in 10.0 mi WNW 5.8 mph - N/A   Scattered Clouds
7:48 PM 78.8 °F 50.0 °F 36% 30.17 in 10.0 mi NW 4.6 mph - N/A   Scattered Clouds
8:12 PM 78.8 °F 50.0 °F 36% 30.15 in 10.0 mi Calm Calm - N/A   Scattered Clouds
8:30 PM 77.0 °F 51.8 °F 41% 30.17 in 10.0 mi West 3.5 mph - N/A   Clear
8:48 PM 78.8 °F 53.6 °F 42% 30.17 in 10.0 mi Calm Calm - N/A   Clear
9:12 PM 77.0 °F 53.6 °F 44% 30.18 in 10.0 mi Calm Calm - N/A   Clear
9:30 PM 77.0 °F 53.6 °F 44% 30.18 in 10.0 mi Calm Calm - N/A   Clear
9:48 PM 77.0 °F 53.6 °F 44% 30.18 in 10.0 mi South 3.5 mph - N/A   Clear
10:12 PM 73.4 °F 53.6 °F 50% 30.18 in 10.0 mi WSW 3.5 mph - N/A   Clear
10:30 PM 73.4 °F 55.4 °F 53% 30.18 in 10.0 mi Calm Calm - N/A   Clear
10:48 PM 73.4 °F 53.6 °F 50% 30.18 in 10.0 mi Calm Calm - N/A   Clear
11:12 PM 73.4 °F 53.6 °F 50% 30.18 in 10.0 mi SE 3.5 mph - N/A   Clear
11:30 PM 73.4 °F 51.8 °F 47% 30.18 in 10.0 mi South 3.5 mph - N/A   Clear